createdAt,value
2023-02-08T00:00:16.249Z,30.58
2023-02-08T00:00:47.671Z,30.56
2023-02-08T00:01:19.109Z,30.55
2023-02-08T00:01:50.585Z,30.41
2023-02-08T00:02:22.062Z,30.54
2023-02-08T00:02:53.563Z,30.42
2023-02-08T00:03:25.110Z,30.58
2023-02-08T00:03:56.601Z,30.49
2023-02-08T00:04:28.053Z,30.61
2023-02-08T00:04:59.476Z,30.57
2023-02-08T00:05:30.920Z,30.67
2023-02-08T00:06:05.182Z,30.48
2023-02-08T00:06:36.633Z,30.58
2023-02-08T00:07:08.039Z,30.56
2023-02-08T00:07:39.424Z,30.48
2023-02-08T00:08:10.901Z,30.53
2023-02-08T00:08:42.298Z,30.50
2023-02-08T00:09:13.728Z,30.59
2023-02-08T00:09:45.075Z,30.42
2023-02-08T00:10:16.493Z,30.60
2023-02-08T00:10:47.893Z,30.52
2023-02-08T00:11:19.350Z,30.48
2023-02-08T00:11:50.824Z,30.47
2023-02-08T00:12:22.229Z,30.51
2023-02-08T00:12:53.641Z,30.52
2023-02-08T00:13:25.089Z,30.58
2023-02-08T00:13:56.461Z,30.57
2023-02-08T00:14:27.879Z,30.46
2023-02-08T00:14:59.290Z,30.57
2023-02-08T00:15:30.728Z,30.45
2023-02-08T00:16:02.152Z,30.42
2023-02-08T00:16:33.588Z,30.45
2023-02-08T00:17:05.038Z,30.51
2023-02-08T00:17:36.558Z,30.39
2023-02-08T00:18:08.086Z,30.44
2023-02-08T00:18:39.601Z,30.50
2023-02-08T00:19:11.071Z,30.34
2023-02-08T00:19:42.494Z,30.43
2023-02-08T00:20:13.993Z,30.34
2023-02-08T00:20:45.417Z,30.34
2023-02-08T00:21:16.845Z,30.47
2023-02-08T00:21:48.387Z,30.38
2023-02-08T00:22:19.832Z,30.57
2023-02-08T00:22:52.634Z,30.65
2023-02-08T00:23:24.858Z,30.67
2023-02-08T00:23:56.358Z,30.51
2023-02-08T00:24:27.836Z,30.57
2023-02-08T00:24:59.249Z,30.52
2023-02-08T00:25:30.643Z,30.31
2023-02-08T00:26:02.029Z,30.41
2023-02-08T00:26:33.493Z,30.47
2023-02-08T00:27:04.956Z,30.43
2023-02-08T00:27:36.387Z,30.50
2023-02-08T00:28:09.438Z,30.34
2023-02-08T00:28:40.974Z,30.52
2023-02-08T00:29:12.455Z,30.43
2023-02-08T00:29:43.879Z,30.25
2023-02-08T00:30:15.275Z,30.40
2023-02-08T00:30:46.672Z,30.44
2023-02-08T00:31:18.113Z,30.25
2023-02-08T00:31:52.407Z,30.33
2023-02-08T00:32:23.902Z,30.34
2023-02-08T00:32:55.321Z,30.39
2023-02-08T00:33:26.794Z,30.29
2023-02-08T00:33:58.392Z,30.55
2023-02-08T00:34:29.853Z,30.24
2023-02-08T00:35:01.289Z,30.51
2023-02-08T00:35:32.661Z,30.40
2023-02-08T00:36:04.144Z,30.20
2023-02-08T00:36:35.540Z,30.40
2023-02-08T00:37:06.942Z,30.25
2023-02-08T00:37:38.342Z,30.31
2023-02-08T00:38:09.766Z,30.36
2023-02-08T00:38:41.154Z,30.25
2023-02-08T00:39:12.605Z,30.34
2023-02-08T00:39:43.971Z,30.39
2023-02-08T00:40:15.442Z,30.29
2023-02-08T00:40:46.853Z,30.32
2023-02-08T00:41:18.220Z,30.34
2023-02-08T00:41:49.709Z,30.24
2023-02-08T00:42:21.094Z,30.31
2023-02-08T00:42:52.577Z,30.32
2023-02-08T00:43:23.977Z,30.33
2023-02-08T00:43:55.458Z,30.38
2023-02-08T00:44:26.857Z,30.40
2023-02-08T00:44:58.572Z,30.29
2023-02-08T00:45:30.036Z,30.20
2023-02-08T00:46:01.478Z,30.29
2023-02-08T00:46:32.988Z,30.17
2023-02-08T00:47:04.447Z,30.18
2023-02-08T00:47:35.830Z,30.13
2023-02-08T00:48:07.232Z,30.07
2023-02-08T00:48:38.602Z,30.08
2023-02-08T00:49:10.068Z,30.24
2023-02-08T00:49:41.423Z,30.20
2023-02-08T00:50:12.830Z,30.18
2023-02-08T00:50:44.300Z,30.27
2023-02-08T00:51:15.695Z,30.12
2023-02-08T00:51:47.142Z,30.22
2023-02-08T00:52:18.520Z,30.14
2023-02-08T00:52:49.952Z,30.29
2023-02-08T00:53:21.342Z,30.30
2023-02-08T00:53:52.758Z,30.30
2023-02-08T00:54:24.201Z,30.25
2023-02-08T00:54:55.613Z,30.19
2023-02-08T00:55:27.005Z,30.29
2023-02-08T00:55:58.424Z,30.21
2023-02-08T00:56:29.921Z,30.20
2023-02-08T00:57:01.375Z,30.09
2023-02-08T00:57:32.829Z,30.26
2023-02-08T00:58:04.257Z,30.13
2023-02-08T00:58:35.761Z,30.18
2023-02-08T00:59:07.172Z,30.31
2023-02-08T00:59:38.727Z,30.25
2023-02-08T01:00:10.104Z,30.16
2023-02-08T01:00:41.794Z,30.03
2023-02-08T01:01:13.401Z,30.22
2023-02-08T01:01:44.872Z,30.14
2023-02-08T01:02:16.368Z,30.15
2023-02-08T01:02:47.762Z,30.07
2023-02-08T01:03:19.231Z,30.16
2023-02-08T01:03:50.652Z,30.19
2023-02-08T01:04:22.049Z,29.96
2023-02-08T01:04:53.464Z,30.22
2023-02-08T01:05:24.893Z,30.21
2023-02-08T01:05:56.281Z,30.18
2023-02-08T01:06:27.710Z,29.98
2023-02-08T01:06:59.149Z,30.00
2023-02-08T01:07:30.557Z,30.18
2023-02-08T01:08:01.950Z,29.99
2023-02-08T01:08:33.431Z,30.11
2023-02-08T01:09:04.807Z,29.91
2023-02-08T01:09:36.225Z,30.08
2023-02-08T01:10:07.715Z,30.01
2023-02-08T01:10:42.344Z,30.05
2023-02-08T01:11:13.849Z,30.00
2023-02-08T01:11:45.234Z,29.92
2023-02-08T01:12:16.654Z,30.06
2023-02-08T01:12:48.053Z,30.05
2023-02-08T01:13:19.452Z,29.94
2023-02-08T01:13:50.964Z,30.06
2023-02-08T01:14:22.366Z,30.19
2023-02-08T01:14:53.753Z,30.07
2023-02-08T01:15:25.273Z,29.98
2023-02-08T01:15:56.697Z,29.93
2023-02-08T01:16:28.212Z,30.02
2023-02-08T01:16:59.639Z,30.17
2023-02-08T01:17:31.107Z,30.05
2023-02-08T01:18:02.573Z,30.15
2023-02-08T01:18:33.997Z,30.00
2023-02-08T01:19:05.394Z,30.08
2023-02-08T01:19:36.830Z,29.93
2023-02-08T01:20:08.329Z,29.92
2023-02-08T01:20:39.985Z,29.94
2023-02-08T01:21:11.522Z,29.98
2023-02-08T01:21:42.933Z,29.79
2023-02-08T01:22:14.360Z,30.04
2023-02-08T01:22:45.769Z,30.00
2023-02-08T01:23:17.159Z,29.96
2023-02-08T01:23:48.616Z,30.03
2023-02-08T01:24:20.032Z,29.98
2023-02-08T01:24:51.653Z,29.92
2023-02-08T01:25:23.101Z,29.98
2023-02-08T01:25:54.580Z,30.10
2023-02-08T01:26:26.004Z,29.96
2023-02-08T01:26:57.399Z,29.90
2023-02-08T01:27:28.861Z,29.82
2023-02-08T01:28:00.286Z,29.96
2023-02-08T01:28:31.843Z,29.86
2023-02-08T01:29:03.259Z,30.02
2023-02-08T01:29:34.675Z,29.91
2023-02-08T01:30:06.079Z,30.00
2023-02-08T01:30:37.573Z,29.84
2023-02-08T01:31:09.141Z,29.89
2023-02-08T01:31:40.754Z,29.92
2023-02-08T01:32:12.143Z,29.92
2023-02-08T01:32:43.568Z,29.93
2023-02-08T01:33:14.979Z,29.77
2023-02-08T01:33:46.411Z,29.79
2023-02-08T01:34:17.877Z,29.78
2023-02-08T01:34:49.309Z,29.64
2023-02-08T01:35:20.710Z,29.79
2023-02-08T01:35:52.358Z,29.84
2023-02-08T01:36:23.860Z,29.85
2023-02-08T01:36:55.388Z,29.81
2023-02-08T01:37:26.754Z,29.91
2023-02-08T01:37:58.168Z,29.83
2023-02-08T01:38:29.611Z,29.77
2023-02-08T01:39:01.017Z,29.84
2023-02-08T01:39:32.508Z,29.77
2023-02-08T01:40:03.897Z,29.74
2023-02-08T01:40:35.303Z,29.72
2023-02-08T01:41:06.738Z,29.72
2023-02-08T01:41:38.143Z,29.71
2023-02-08T01:42:09.551Z,29.80
2023-02-08T01:42:40.974Z,29.85
2023-02-08T01:43:12.395Z,29.78
2023-02-08T01:43:43.819Z,29.71
2023-02-08T01:44:15.218Z,29.86
2023-02-08T01:44:46.707Z,29.82
2023-02-08T01:45:18.139Z,29.72
2023-02-08T01:45:49.585Z,29.76
2023-02-08T01:46:21.079Z,29.74
2023-02-08T01:46:52.488Z,29.72
2023-02-08T01:47:24.029Z,29.58
2023-02-08T01:47:55.417Z,29.78
2023-02-08T01:48:26.880Z,29.62
2023-02-08T01:48:58.292Z,29.73
2023-02-08T01:49:29.665Z,29.74
2023-02-08T01:50:01.194Z,29.75
2023-02-08T01:50:32.602Z,29.79
2023-02-08T01:51:03.994Z,29.69
2023-02-08T01:51:35.442Z,29.71
2023-02-08T01:52:06.911Z,29.81
2023-02-08T01:52:38.334Z,29.74
2023-02-08T01:53:09.709Z,29.53
2023-02-08T01:53:41.115Z,29.59
2023-02-08T01:54:12.583Z,29.55
2023-02-08T01:54:43.984Z,29.62
2023-02-08T01:55:15.482Z,29.60
2023-02-08T01:55:46.861Z,29.66
2023-02-08T01:56:18.275Z,29.67
2023-02-08T01:56:49.675Z,29.75
2023-02-08T01:57:21.131Z,29.60
2023-02-08T01:57:52.569Z,29.59
2023-02-08T01:58:24.000Z,29.61
2023-02-08T01:58:55.425Z,29.62
2023-02-08T01:59:26.883Z,29.53
2023-02-08T01:59:58.329Z,29.62
2023-02-08T02:00:29.795Z,29.59
2023-02-08T02:01:01.188Z,29.62
2023-02-08T02:01:32.630Z,29.58
2023-02-08T02:02:04.121Z,29.55
2023-02-08T02:02:35.531Z,29.59
2023-02-08T02:03:07.027Z,29.46
2023-02-08T02:03:38.387Z,29.67
2023-02-08T02:04:09.775Z,29.48
2023-02-08T02:04:41.216Z,29.40
2023-02-08T02:05:12.593Z,29.42
2023-02-08T02:05:44.091Z,29.47
2023-02-08T02:06:15.525Z,29.51
2023-02-08T02:06:46.939Z,29.42
2023-02-08T02:07:18.400Z,29.54
2023-02-08T02:07:49.783Z,29.34
2023-02-08T02:08:21.188Z,29.58
2023-02-08T02:08:52.632Z,29.41
2023-02-08T02:09:24.057Z,29.40
2023-02-08T02:09:55.691Z,29.28
2023-02-08T02:10:27.131Z,29.46
2023-02-08T02:10:58.643Z,29.39
2023-02-08T02:11:30.065Z,29.51
2023-02-08T02:12:01.484Z,29.57
2023-02-08T02:12:32.921Z,29.47
2023-02-08T02:13:04.310Z,29.35
2023-02-08T02:13:35.723Z,29.28
2023-02-08T02:14:07.134Z,29.41
2023-02-08T02:14:38.552Z,29.44
2023-02-08T02:15:10.020Z,29.47
2023-02-08T02:15:41.421Z,29.60
2023-02-08T02:16:12.898Z,29.46
2023-02-08T02:16:44.324Z,29.39
2023-02-08T02:17:15.772Z,29.45
2023-02-08T02:17:47.234Z,29.41
2023-02-08T02:18:18.639Z,29.38
2023-02-08T02:18:50.055Z,29.37
2023-02-08T02:19:21.447Z,29.46
2023-02-08T02:19:52.861Z,29.34
2023-02-08T02:20:24.266Z,29.31
2023-02-08T02:20:55.668Z,29.29
2023-02-08T02:21:27.133Z,29.24
2023-02-08T02:21:58.537Z,29.36
2023-02-08T02:22:29.975Z,29.17
2023-02-08T02:23:01.442Z,29.34
2023-02-08T02:23:32.846Z,29.27
2023-02-08T02:24:04.295Z,29.31
2023-02-08T02:24:35.776Z,29.34
2023-02-08T02:25:07.186Z,29.46
2023-02-08T02:25:38.637Z,29.12
2023-02-08T02:26:10.046Z,29.26
2023-02-08T02:26:41.483Z,29.38
2023-02-08T02:27:12.906Z,29.36
2023-02-08T02:27:44.311Z,29.34
2023-02-08T02:28:15.796Z,29.27
2023-02-08T02:28:47.238Z,29.37
2023-02-08T02:29:18.606Z,29.28
2023-02-08T02:29:50.038Z,29.39
2023-02-08T02:30:21.491Z,29.20
2023-02-08T02:30:52.959Z,29.36
2023-02-08T02:31:24.485Z,29.28
2023-02-08T02:31:56.192Z,29.26
2023-02-08T02:32:27.621Z,29.12
2023-02-08T02:32:59.049Z,29.23
2023-02-08T02:33:30.500Z,29.23
2023-02-08T02:34:01.935Z,29.18
2023-02-08T02:34:33.343Z,29.15
2023-02-08T02:35:04.750Z,29.17
2023-02-08T02:35:36.219Z,29.26
2023-02-08T02:36:07.641Z,29.04
2023-02-08T02:36:39.060Z,29.30
2023-02-08T02:37:10.560Z,29.21
2023-02-08T02:37:41.997Z,29.11
2023-02-08T02:38:13.405Z,29.15
2023-02-08T02:38:44.822Z,29.02
2023-02-08T02:39:16.195Z,29.15
2023-02-08T02:39:47.565Z,29.19
2023-02-08T02:40:18.952Z,29.20
2023-02-08T02:40:50.454Z,29.21
2023-02-08T02:41:21.925Z,29.14
2023-02-08T02:41:53.376Z,29.17
2023-02-08T02:42:24.825Z,29.13
2023-02-08T02:42:56.231Z,29.05
2023-02-08T02:43:27.669Z,28.94
2023-02-08T02:43:59.033Z,29.17
2023-02-08T02:44:30.458Z,29.08
2023-02-08T02:45:04.648Z,28.96
2023-02-08T02:45:36.082Z,29.21
2023-02-08T02:46:07.552Z,28.95
2023-02-08T02:46:38.980Z,29.04
2023-02-08T02:47:10.376Z,28.93
2023-02-08T02:47:41.862Z,29.15
2023-02-08T02:48:13.228Z,29.03
2023-02-08T02:48:44.674Z,29.15
2023-02-08T02:49:16.063Z,29.04
2023-02-08T02:49:47.462Z,29.06
2023-02-08T02:50:18.926Z,29.08
2023-02-08T02:50:50.385Z,28.98
2023-02-08T02:51:21.799Z,28.98
2023-02-08T02:51:53.179Z,28.97
2023-02-08T02:52:24.588Z,28.84
2023-02-08T02:52:56.049Z,28.86
2023-02-08T02:53:27.449Z,28.96
2023-02-08T02:53:58.860Z,29.01
2023-02-08T02:54:30.246Z,28.82
2023-02-08T02:55:01.637Z,28.87
2023-02-08T02:55:33.036Z,28.91
2023-02-08T02:56:04.431Z,28.80
2023-02-08T02:56:35.836Z,28.88
2023-02-08T02:57:07.282Z,28.75
2023-02-08T02:57:38.695Z,28.79
2023-02-08T02:58:10.178Z,28.87
2023-02-08T02:58:41.590Z,28.94
2023-02-08T02:59:12.995Z,28.88
2023-02-08T02:59:44.405Z,28.82
2023-02-08T03:00:15.750Z,28.90
2023-02-08T03:00:47.258Z,28.81
2023-02-08T03:01:18.740Z,28.68
2023-02-08T03:01:50.221Z,28.80
2023-02-08T03:02:21.632Z,28.86
2023-02-08T03:02:53.053Z,28.94
2023-02-08T03:03:24.532Z,28.79
2023-02-08T03:03:55.999Z,28.79
2023-02-08T03:04:27.546Z,28.86
2023-02-08T03:04:59.022Z,28.88
2023-02-08T03:05:30.594Z,28.86
2023-02-08T03:06:02.110Z,28.94
2023-02-08T03:06:33.607Z,28.86
2023-02-08T03:07:05.022Z,28.82
2023-02-08T03:07:36.480Z,28.89
2023-02-08T03:08:07.968Z,29.01
2023-02-08T03:08:39.356Z,28.76
2023-02-08T03:09:10.824Z,28.79
2023-02-08T03:09:42.286Z,28.81
2023-02-08T03:10:13.752Z,28.99
2023-02-08T03:10:45.155Z,28.80
2023-02-08T03:11:16.593Z,28.59
2023-02-08T03:11:48.015Z,28.79
2023-02-08T03:12:19.413Z,28.70
2023-02-08T03:12:50.809Z,28.80
2023-02-08T03:13:22.178Z,28.64
2023-02-08T03:13:53.622Z,28.70
2023-02-08T03:14:25.105Z,28.84
2023-02-08T03:14:56.551Z,28.73
2023-02-08T03:15:27.975Z,28.65
2023-02-08T03:15:59.484Z,28.78
2023-02-08T03:16:30.972Z,28.71
2023-02-08T03:17:02.498Z,28.54
2023-02-08T03:17:33.964Z,28.70
2023-02-08T03:18:05.387Z,28.61
2023-02-08T03:18:36.800Z,28.70
2023-02-08T03:19:08.211Z,28.71
2023-02-08T03:19:39.571Z,28.65
2023-02-08T03:20:11.035Z,28.62
2023-02-08T03:20:42.634Z,28.62
2023-02-08T03:21:14.253Z,28.63
2023-02-08T03:21:45.758Z,28.67
2023-02-08T03:22:17.200Z,28.81
2023-02-08T03:22:48.598Z,28.59
2023-02-08T03:23:20.012Z,28.82
2023-02-08T03:23:51.448Z,28.63
2023-02-08T03:24:22.834Z,28.60
2023-02-08T03:24:54.244Z,28.56
2023-02-08T03:25:25.643Z,28.46
2023-02-08T03:25:57.026Z,28.67
2023-02-08T03:26:28.431Z,28.60
2023-02-08T03:27:00.150Z,28.58
2023-02-08T03:27:31.561Z,28.54
2023-02-08T03:28:03.063Z,28.60
2023-02-08T03:28:34.480Z,28.61
2023-02-08T03:29:05.882Z,28.53
2023-02-08T03:29:37.290Z,28.63
2023-02-08T03:30:08.740Z,28.56
2023-02-08T03:30:42.007Z,28.51
2023-02-08T03:31:13.768Z,28.43
2023-02-08T03:31:45.332Z,28.48
2023-02-08T03:32:16.863Z,28.62
2023-02-08T03:32:48.296Z,28.50
2023-02-08T03:33:19.704Z,28.56
2023-02-08T03:33:51.118Z,28.63
2023-02-08T03:34:22.548Z,28.43
2023-02-08T03:34:53.977Z,28.37
2023-02-08T03:35:25.398Z,28.64
2023-02-08T03:35:56.840Z,28.44
2023-02-08T03:36:28.262Z,28.45
2023-02-08T03:36:59.615Z,28.57
2023-02-08T03:37:31.103Z,28.38
2023-02-08T03:38:02.527Z,28.44
2023-02-08T03:38:33.950Z,28.41
2023-02-08T03:39:05.415Z,28.50
2023-02-08T03:39:36.839Z,28.49
2023-02-08T03:40:08.354Z,28.43
2023-02-08T03:40:40.071Z,28.47
2023-02-08T03:41:11.719Z,28.41
2023-02-08T03:41:43.105Z,28.35
2023-02-08T03:42:14.582Z,28.52
2023-02-08T03:42:46.024Z,28.35
2023-02-08T03:43:17.464Z,28.49
2023-02-08T03:43:48.921Z,28.47
2023-02-08T03:44:20.292Z,28.39
2023-02-08T03:44:51.689Z,28.38
2023-02-08T03:45:23.108Z,28.47
2023-02-08T03:45:54.539Z,28.41
2023-02-08T03:46:25.979Z,28.34
2023-02-08T03:46:57.405Z,28.51
2023-02-08T03:47:28.802Z,28.48
2023-02-08T03:48:00.370Z,28.36
2023-02-08T03:48:31.760Z,28.41
2023-02-08T03:49:03.201Z,28.39
2023-02-08T03:49:34.618Z,28.50
2023-02-08T03:50:06.000Z,28.44
2023-02-08T03:50:37.510Z,28.26
2023-02-08T03:51:09.164Z,28.35
2023-02-08T03:51:40.570Z,28.35
2023-02-08T03:52:11.938Z,28.29
2023-02-08T03:52:43.400Z,28.41
2023-02-08T03:53:14.884Z,28.36
2023-02-08T03:53:46.355Z,28.20
2023-02-08T03:54:17.729Z,28.25
2023-02-08T03:54:49.189Z,28.37
2023-02-08T03:55:20.611Z,28.29
2023-02-08T03:55:52.052Z,28.28
2023-02-08T03:56:23.461Z,28.36
2023-02-08T03:56:54.857Z,28.35
2023-02-08T03:57:26.264Z,28.25
2023-02-08T03:57:57.636Z,28.29
2023-02-08T03:58:29.114Z,28.42
2023-02-08T03:59:00.542Z,28.30
2023-02-08T03:59:31.996Z,28.23
2023-02-08T04:00:04.032Z,28.22
2023-02-08T04:00:35.404Z,28.20
2023-02-08T04:01:06.905Z,28.29
2023-02-08T04:01:38.348Z,28.30
2023-02-08T04:02:09.833Z,28.15
2023-02-08T04:02:41.298Z,28.18
2023-02-08T04:03:12.746Z,28.17
2023-02-08T04:03:44.232Z,28.26
2023-02-08T04:04:15.614Z,28.27
2023-02-08T04:04:47.214Z,28.03
2023-02-08T04:05:18.664Z,28.10
2023-02-08T04:05:50.105Z,28.16
2023-02-08T04:06:21.547Z,28.12
2023-02-08T04:06:54.993Z,28.20
2023-02-08T04:07:26.414Z,28.07
2023-02-08T04:07:57.797Z,28.17
2023-02-08T04:08:29.193Z,28.31
2023-02-08T04:09:00.608Z,28.16
2023-02-08T04:09:32.063Z,28.07
2023-02-08T04:10:03.658Z,28.01
2023-02-08T04:10:35.098Z,28.05
2023-02-08T04:11:06.539Z,28.23
2023-02-08T04:11:37.941Z,28.00
2023-02-08T04:12:09.341Z,28.09
2023-02-08T04:12:40.760Z,28.19
2023-02-08T04:13:12.205Z,28.17
2023-02-08T04:13:43.655Z,28.05
2023-02-08T04:14:15.059Z,27.96
2023-02-08T04:14:46.492Z,27.97
2023-02-08T04:15:17.916Z,28.23
2023-02-08T04:15:49.361Z,28.20
2023-02-08T04:16:20.747Z,28.10
2023-02-08T04:16:54.682Z,28.12
2023-02-08T04:17:26.106Z,28.06
2023-02-08T04:17:57.564Z,28.24
2023-02-08T04:18:28.960Z,28.04
2023-02-08T04:19:00.350Z,28.18
2023-02-08T04:19:31.769Z,28.17
2023-02-08T04:20:03.288Z,28.18
2023-02-08T04:20:34.747Z,28.01
2023-02-08T04:21:06.190Z,28.09
2023-02-08T04:21:37.578Z,27.98
2023-02-08T04:22:08.966Z,27.99
2023-02-08T04:22:40.458Z,28.11
2023-02-08T04:23:12.040Z,28.14
2023-02-08T04:23:43.486Z,28.18
2023-02-08T04:24:14.984Z,28.04
2023-02-08T04:24:46.408Z,28.17
2023-02-08T04:25:17.882Z,28.07
2023-02-08T04:25:49.295Z,27.83
2023-02-08T04:26:20.763Z,28.06
2023-02-08T04:26:54.851Z,28.00
2023-02-08T04:27:26.244Z,28.03
2023-02-08T04:27:57.654Z,27.90
2023-02-08T04:28:29.123Z,28.03
2023-02-08T04:29:00.528Z,28.09
2023-02-08T04:29:31.992Z,27.94
2023-02-08T04:30:06.474Z,27.84
2023-02-08T04:30:37.923Z,27.93
2023-02-08T04:31:09.561Z,27.92
2023-02-08T04:31:41.142Z,28.00
2023-02-08T04:32:12.538Z,28.12
2023-02-08T04:32:44.006Z,27.94
2023-02-08T04:33:15.472Z,27.86
2023-02-08T04:33:46.889Z,27.87
2023-02-08T04:34:18.292Z,28.06
2023-02-08T04:34:49.668Z,28.00
2023-02-08T04:35:21.060Z,28.00
2023-02-08T04:35:52.458Z,27.98
2023-02-08T04:36:23.853Z,27.96
2023-02-08T04:36:55.318Z,27.94
2023-02-08T04:37:26.734Z,27.90
2023-02-08T04:37:58.144Z,28.00
2023-02-08T04:38:29.582Z,27.82
2023-02-08T04:39:01.045Z,27.85
2023-02-08T04:39:32.454Z,27.79
2023-02-08T04:40:04.034Z,27.86
2023-02-08T04:40:35.448Z,27.95
2023-02-08T04:41:06.954Z,27.87
2023-02-08T04:41:38.355Z,27.67
2023-02-08T04:42:09.906Z,27.96
2023-02-08T04:42:41.300Z,27.93
2023-02-08T04:43:12.678Z,27.96
2023-02-08T04:43:44.095Z,27.78
2023-02-08T04:44:15.541Z,27.94
2023-02-08T04:44:46.970Z,27.86
2023-02-08T04:45:18.414Z,27.97
2023-02-08T04:45:49.847Z,27.97
2023-02-08T04:46:21.271Z,27.95
2023-02-08T04:46:52.699Z,27.89
2023-02-08T04:47:24.209Z,27.71
2023-02-08T04:47:55.576Z,27.76
2023-02-08T04:48:27.088Z,27.83
2023-02-08T04:48:59.078Z,27.79
2023-02-08T04:49:30.572Z,27.87
2023-02-08T04:50:01.984Z,27.96
2023-02-08T04:50:33.400Z,27.84
2023-02-08T04:51:04.844Z,27.78
2023-02-08T04:51:36.274Z,27.89
2023-02-08T04:52:07.817Z,27.85
2023-02-08T04:52:39.272Z,27.82
2023-02-08T04:53:10.655Z,27.81
2023-02-08T04:53:42.041Z,27.66
2023-02-08T04:54:13.477Z,27.83
2023-02-08T04:54:45.074Z,27.85
2023-02-08T04:55:16.497Z,27.76
2023-02-08T04:55:47.891Z,27.81
2023-02-08T04:56:19.328Z,27.67
2023-02-08T04:56:50.798Z,27.75
2023-02-08T04:57:22.275Z,27.87
2023-02-08T04:57:53.673Z,27.76
2023-02-08T04:58:25.115Z,27.74
2023-02-08T04:58:56.491Z,27.84
2023-02-08T04:59:27.884Z,27.79
2023-02-08T05:00:00.423Z,27.86
2023-02-08T05:00:34.714Z,27.71
2023-02-08T05:01:06.254Z,27.86
2023-02-08T05:01:37.806Z,27.74
2023-02-08T05:02:09.248Z,27.66
2023-02-08T05:02:40.691Z,27.73
2023-02-08T05:03:12.081Z,27.81
2023-02-08T05:03:43.520Z,27.90
2023-02-08T05:04:14.899Z,27.86
2023-02-08T05:04:46.318Z,27.70
2023-02-08T05:05:17.801Z,27.77
2023-02-08T05:05:49.214Z,27.67
2023-02-08T05:06:20.682Z,27.84
2023-02-08T05:06:52.164Z,27.88
2023-02-08T05:07:26.419Z,27.72
2023-02-08T05:07:57.896Z,27.88
2023-02-08T05:08:29.434Z,27.77
2023-02-08T05:09:00.830Z,27.78
2023-02-08T05:09:32.303Z,27.85
2023-02-08T05:10:03.728Z,27.70
2023-02-08T05:10:35.206Z,27.76
2023-02-08T05:11:06.848Z,27.79
2023-02-08T05:11:38.267Z,27.74
2023-02-08T05:12:09.697Z,27.72
2023-02-08T05:12:41.104Z,27.68
2023-02-08T05:13:12.524Z,27.75
2023-02-08T05:13:43.937Z,27.77
2023-02-08T05:14:15.477Z,27.72
2023-02-08T05:14:46.883Z,27.70
2023-02-08T05:15:21.067Z,27.80
2023-02-08T05:15:52.524Z,27.67
2023-02-08T05:16:23.975Z,27.73
2023-02-08T05:16:55.422Z,27.57
2023-02-08T05:17:26.900Z,27.76
2023-02-08T05:17:58.334Z,27.72
2023-02-08T05:18:29.869Z,27.44
2023-02-08T05:19:01.285Z,27.68
2023-02-08T05:19:32.677Z,27.66
2023-02-08T05:20:04.100Z,27.60
2023-02-08T05:20:35.469Z,27.78
2023-02-08T05:21:06.946Z,27.73
2023-02-08T05:21:38.361Z,27.59
2023-02-08T05:22:09.804Z,27.79
2023-02-08T05:22:41.198Z,27.56
2023-02-08T05:23:12.586Z,27.51
2023-02-08T05:23:46.582Z,27.63
2023-02-08T05:24:18.226Z,27.68
2023-02-08T05:24:49.637Z,27.77
2023-02-08T05:25:21.097Z,27.71
2023-02-08T05:25:52.516Z,27.77
2023-02-08T05:26:23.913Z,27.67
2023-02-08T05:26:55.295Z,27.62
2023-02-08T05:27:26.686Z,27.63
2023-02-08T05:27:58.116Z,27.68
2023-02-08T05:28:29.548Z,27.52
2023-02-08T05:29:01.018Z,27.53
2023-02-08T05:29:32.446Z,27.66
2023-02-08T05:30:04.128Z,27.52
2023-02-08T05:30:35.570Z,27.38
2023-02-08T05:31:07.025Z,27.57
2023-02-08T05:31:38.525Z,27.59
2023-02-08T05:32:09.998Z,27.60
2023-02-08T05:32:41.407Z,27.69
2023-02-08T05:33:12.867Z,27.59
2023-02-08T05:33:44.298Z,27.65
2023-02-08T05:34:15.844Z,27.65
2023-02-08T05:34:47.217Z,27.59
2023-02-08T05:35:18.652Z,27.65
2023-02-08T05:35:50.054Z,27.59
2023-02-08T05:36:21.444Z,27.49
2023-02-08T05:36:52.852Z,27.61
2023-02-08T05:37:24.238Z,27.53
2023-02-08T05:37:55.620Z,27.39
2023-02-08T05:38:27.023Z,27.44
2023-02-08T05:38:58.420Z,27.43
2023-02-08T05:39:29.919Z,27.44
2023-02-08T05:40:01.328Z,27.41
2023-02-08T05:40:32.823Z,27.47
2023-02-08T05:41:04.248Z,27.55
2023-02-08T05:41:35.659Z,27.36
2023-02-08T05:42:07.221Z,27.48
2023-02-08T05:42:38.747Z,27.53
2023-02-08T05:43:10.213Z,27.49
2023-02-08T05:43:41.638Z,27.44
2023-02-08T05:44:13.076Z,27.45
2023-02-08T05:44:44.521Z,27.52
2023-02-08T05:45:16.008Z,27.53
2023-02-08T05:45:47.434Z,27.61
2023-02-08T05:46:20.624Z,27.51
2023-02-08T05:46:52.093Z,27.50
2023-02-08T05:47:23.523Z,27.49
2023-02-08T05:47:54.937Z,27.41
2023-02-08T05:48:26.358Z,27.51
2023-02-08T05:48:57.733Z,27.32
2023-02-08T05:49:29.147Z,27.41
2023-02-08T05:50:00.669Z,27.44
2023-02-08T05:50:32.084Z,27.35
2023-02-08T05:51:03.558Z,27.55
2023-02-08T05:51:34.956Z,27.57
2023-02-08T05:52:06.358Z,27.58
2023-02-08T05:52:37.775Z,27.54
2023-02-08T05:53:09.178Z,27.58
2023-02-08T05:53:40.642Z,27.67
2023-02-08T05:54:12.086Z,27.43
2023-02-08T05:54:43.486Z,27.51
2023-02-08T05:55:14.957Z,27.34
2023-02-08T05:55:46.354Z,27.37
2023-02-08T05:56:17.782Z,27.37
2023-02-08T05:56:49.221Z,27.26
2023-02-08T05:57:20.622Z,27.36
2023-02-08T05:57:52.021Z,27.33
2023-02-08T05:58:23.388Z,27.32
2023-02-08T05:58:54.815Z,27.21
2023-02-08T05:59:26.234Z,27.44
2023-02-08T05:59:57.641Z,27.31
2023-02-08T06:00:29.149Z,27.42
2023-02-08T06:01:00.577Z,27.36
2023-02-08T06:01:32.062Z,27.49
2023-02-08T06:02:03.480Z,27.49
2023-02-08T06:02:34.889Z,27.38
2023-02-08T06:03:06.305Z,27.21
2023-02-08T06:03:37.732Z,27.41
2023-02-08T06:04:09.349Z,27.44
2023-02-08T06:04:40.749Z,27.57
2023-02-08T06:05:12.214Z,27.29
2023-02-08T06:05:43.684Z,27.33
2023-02-08T06:06:15.128Z,27.26
2023-02-08T06:06:46.561Z,27.34
2023-02-08T06:07:18.030Z,27.51
2023-02-08T06:07:49.492Z,27.40
2023-02-08T06:08:20.965Z,27.39
2023-02-08T06:08:52.436Z,27.33
2023-02-08T06:09:23.813Z,27.37
2023-02-08T06:09:55.214Z,27.36
2023-02-08T06:10:26.663Z,27.40
2023-02-08T06:10:58.102Z,27.51
2023-02-08T06:11:29.544Z,27.41
2023-02-08T06:12:00.943Z,27.39
2023-02-08T06:12:32.361Z,27.36
2023-02-08T06:13:03.822Z,27.40
2023-02-08T06:13:35.232Z,27.37
2023-02-08T06:14:06.705Z,27.37
2023-02-08T06:14:38.133Z,27.43
2023-02-08T06:15:09.712Z,27.25
2023-02-08T06:15:41.119Z,27.39
2023-02-08T06:16:12.615Z,27.24
2023-02-08T06:16:44.092Z,27.22
2023-02-08T06:17:15.528Z,27.18
2023-02-08T06:17:46.965Z,27.15
2023-02-08T06:18:18.445Z,27.24
2023-02-08T06:18:49.878Z,27.35
2023-02-08T06:19:21.294Z,27.27
2023-02-08T06:19:52.700Z,27.35
2023-02-08T06:20:24.168Z,27.23
2023-02-08T06:20:55.580Z,27.07
2023-02-08T06:21:26.968Z,27.33
2023-02-08T06:21:58.404Z,27.26
2023-02-08T06:22:31.593Z,27.42
2023-02-08T06:23:03.065Z,27.30
2023-02-08T06:23:34.515Z,27.31
2023-02-08T06:24:05.956Z,27.40
2023-02-08T06:24:37.380Z,27.26
2023-02-08T06:25:09.083Z,27.36
2023-02-08T06:25:40.555Z,27.24
2023-02-08T06:26:11.964Z,27.34
2023-02-08T06:26:43.356Z,27.30
2023-02-08T06:27:14.757Z,27.28
2023-02-08T06:27:46.138Z,27.22
2023-02-08T06:28:17.605Z,27.13
2023-02-08T06:28:49.035Z,27.22
2023-02-08T06:29:20.479Z,27.35
2023-02-08T06:29:52.053Z,27.41
2023-02-08T06:30:23.503Z,27.22
2023-02-08T06:30:54.877Z,27.28
2023-02-08T06:31:26.316Z,27.32
2023-02-08T06:31:57.881Z,27.18
2023-02-08T06:32:29.408Z,27.39
2023-02-08T06:33:00.877Z,27.33
2023-02-08T06:33:32.429Z,27.35
2023-02-08T06:34:03.953Z,27.32
2023-02-08T06:34:35.364Z,27.03
2023-02-08T06:35:06.820Z,27.24
2023-02-08T06:35:38.217Z,27.22
2023-02-08T06:36:09.638Z,27.25
2023-02-08T06:36:41.050Z,27.33
2023-02-08T06:37:12.485Z,27.07
2023-02-08T06:37:43.905Z,27.23
2023-02-08T06:38:15.263Z,27.19
2023-02-08T06:38:46.750Z,27.24
2023-02-08T06:39:18.193Z,27.29
2023-02-08T06:39:49.613Z,27.29
2023-02-08T06:40:21.055Z,27.27
2023-02-08T06:40:52.474Z,27.10
2023-02-08T06:41:23.846Z,27.13
2023-02-08T06:41:55.347Z,27.08
2023-02-08T06:42:26.781Z,27.25
2023-02-08T06:42:58.202Z,27.24
2023-02-08T06:43:29.585Z,27.19
2023-02-08T06:44:01.054Z,27.25
2023-02-08T06:44:32.466Z,27.08
2023-02-08T06:45:03.860Z,26.98
2023-02-08T06:45:35.303Z,27.07